Aérodrome :
LOGIN :

S'inscrire | Disclaimer

   EN    FR    IT 

 










Légende :    VFR   VFR Marginal   IFR   IFR Intensif   IFR Très Intensif
Visi : 
Plafond : 
>= 8 km
>= 3000ft
5 à 8 km
1000 à 3000 ft
1500m à 5 km
500 à 1000 ft
800 à 1500m
200 à 500 ft
< 800m
< 200 ft
Symboles :   Orages  Brouillard  Fortes neiges  Fortes précipitations  Vent > 20 kt
SIGMETs :   Divers  Orages  Givrage  Turbulence  Onde Orograph.  Cendres Volcan.







- Altitude de l'aérodrome : 330 ft
- Code IATA : LVA
- Voir les cartes d'approche


LFOV - Laval-Entrammes

DERNIER METAR :
  • 221100Z AUTO 25004KT 200V300 7000 BKN004 BKN150 BKN170 06/06 Q1007

METARs EXPIRÉS :
  • 221030Z AUTO VRB02KT 0400 FG VV/// 04/04 Q1007
  • 221000Z AUTO 00000KT 1500 1000 BR BKN004 OVC008 04/03 Q1007
  • 220930Z AUTO 00000KT 0600 FG VV/// 03/03 Q1007
  • 220900Z AUTO 00000KT 0400 FG VV/// 03/03 Q1007
  • 220830Z AUTO 00000KT 0450 FG BKN002 OVC086 03/03 Q1007
  • 220800Z AUTO 00000KT 1700 BR OVC002 03/03 Q1007

TAF N/A
Pas de NOTAMs connus pour ce terrain.



MET'MAP, la Météo Aéronautique d'un coup d'oeil ! - Copyright ORBIFLY Décembre 2007 - Disclaimer

ORBIFLY MET'MAP TEAM :

Programmation & Développement : Alexandra Zaïnal
Conception & Développement : Baudouin d'Aumeries
Co-Programmation & Développement : Marc-Olivier Méhu
Soutien technique & logistique : Manuel Goepfert

Contact : metmap@orbifly.com




SOURCES & CREDITS :

   NOAA